Meteo4 di Emilio Bellavite Il primo osservatorio Meteo di Verona  
 
mercoledì 14 novembre 2018
 
 
dati in tempo reale
Di seguito i dati in tempo reale delle stazioni on line della rete di Meteo4. Cliccando sul link della stazione, ove presente, si accederà al sito web personale.
Stazioni online
Località Giorno Ora Temp. Umid. Relat. Dew Point Press. Atm. Velocità Vento Direz. Vento Precip. Temp.
Min
Temp.
Max
Abano (PD) 14/11/18 11.45 15.9 °C 83 % 13.1 °C 1029.0 hPa 4.8 Km/h NNE 0.2 mm  10.1 °C 15.9 °C
Ala (TN) 14/11/18 11.48 12.8 °C 80 % 9.4 °C 1028.4 hPa 0.0 Km/h ENE 0.0 mm  8.6 °C 13.2 °C
Alleghe Lago (BL) 14/11/18 11.48 5.5 °C 93 % 4.5 °C 1025.1 hPa 0.0 Km/h NE 0.0 mm  3.5 °C 5.5 °C
Ancona (AN) 14/11/18 11.40 14.3 °C 96 % 13.6 °C 1028.8 hPa 0.0 Km/h --- 0.2 mm  7.7 °C 14.3 °C
Ancona loc. Brecce Bianche (AN) 14/11/18 11.38 14.3 °C 86 % 12.0 °C 1030.7 hPa 4.7 Km/h NW 0.0 mm  7.3 °C 14.3 °C
Ardea (RM) 14/11/18 11.47 17.7 °C 70 % 12.2 °C 1023.9 hPa 0.0 Km/h O 0.0 mm  10.2 °C 17.9 °C
Arenzano (GE) 14/11/18 11.48 18.4 °C 78 % 14.5 °C 1027.7 hPa 12.9 Km/h SW 0.0 mm  16.2 °C 18.7 °C
Arquà Polesine (RO) 14/11/18 11.48 15.7 °C 83 % 12.8 °C 1029.7 hPa 1.6 Km/h W 0.0 mm  12.5 °C 15.7 °C
Arzignano loc. Castello (VI) 14/11/18 11.00 17.9 °C 73 % 13.0 °C 1028.0 hPa 0.0 Km/h NNW 0.2 mm  9.3 °C 18.1 °C
Arzignano Pugnello (VI) 14/11/18 11.30 16.5 °C 80 % 13.3 °C 1027.0 hPa 0.0 Km/h E 0.3 mm  9.1 °C 16.5 °C
Arzignano Tezze (VI) 14/11/18 11.39 18.4 °C 71 % 13.1 °C 1028.2 hPa 1.6 Km/h ESE 0.0 mm  7.8 °C 18.4 °C
Avio (TN) 14/11/18 11.48 16.0 °C 67 % 9.9 °C 1028.5 hPa 2.2 Km/h SW 0.0 mm  10.2 °C 16.0 °C
Badia Calavena loc. San Valentino (VR) 14/11/18 11.48 13.5 °C 77 % 9.5 °C 1026.3 hPa 14.5 Km/h ESE 0.2 mm  8.8 °C 13.5 °C
Barbara (AN) 14/11/18 11.48 13.6 °C 79 % 10.0 °C 1030.5 hPa 7.6 Km/h WNW 0.0 mm  10.8 °C 13.8 °C
Barcellona P.G. Centro (ME) 14/11/18 11.48 19.1 °C 73 % 14.1 °C 1025.8 hPa 6.4 Km/h NNW 0.0 mm  14.0 °C 19.6 °C
Barcellona Pozzo di Gotto (ME) 14/11/18 11.48 18.9 °C 74 % 14.2 °C 1025.5 hPa 9.1 Km/h NW 0.0 mm  14.8 °C 19.5 °C
Bardolino (VR) 14/11/18 11.48 15.6 °C 77 % 11.6 °C 1021.7 hPa 0.0 Km/h SW 0.3 mm  11.1 °C 15.6 °C
Beccacivetta (VR) 12/11/18 08.44 12.4 °C 97 % 11.9 °C 1025.6 hPa 0.0 Km/h WNW 0.0 mm  11.0 °C 13.4 °C
Bellaria Igea Marina (RN) 14/11/18 11.48 14.3 °C 95 % 13.5 °C 1027.9 hPa 6.4 Km/h WNW 0.2 mm  10.5 °C 14.3 °C
Bellaria Igea Marina2 (RN) 14/11/18 11.48 14.4 °C 97 % 14.0 °C 1027.3 hPa 9.7 Km/h WNW 0.0 mm  10.7 °C 14.4 °C
Bellaria Igea Marina3 (RN) 14/11/18 11.48 25.5 °C 62 % 17.7 °C 1022.7 hPa 39.1 Km/h ENE 0.2 mm  21.1 °C 25.5 °C
Belluno Castion (BL) 14/11/18 11.30 11.3 °C 85 % 8.9 °C 1028.8 hPa 0.0 Km/h SW 0.2 mm  5.7 °C 11.6 °C
Bernate Ticino fraz. Casate (MI) 14/11/18 11.48 11.8 °C 92 % 10.5 °C 1026.4 hPa 0.0 Km/h E 0.5 mm  6.9 °C 11.9 °C
Besenello (TN) 14/11/18 11.48 13.8 °C 68 % 8.0 °C 1029.8 hPa 9.5 Km/h SW 0.2 mm  8.6 °C 13.8 °C
Bientina (PI) 14/11/18 11.49 16.0 °C 84 % 13.3 °C 1025.7 hPa 0.0 Km/h E 0.0 mm  10.4 °C 16.2 °C
Bisignano (CS) 14/11/18 11.48 18.7 °C 57 % 10.0 °C 1022.0 hPa 5.9 Km/h W 0.0 mm  9.3 °C 19.5 °C
Bitti (NU) 14/11/18 11.48 15.2 °C 82 % 12.2 °C 1023.6 hPa 0.0 Km/h --- 0.0 mm  -29.7 °C 15.2 °C
Bonorva (SS) 14/11/18 11.40 17.3 °C 81 % 14.0 °C 1025.7 hPa 0.0 Km/h NE 0.0 mm  11.5 °C 17.3 °C
Borgo Valsugana (TN) 14/11/18 11.39 9.5 °C 98 % 9.2 °C 1028.0 hPa 2.6 Km/h SSE 0.0 mm  5.4 °C 9.5 °C
Borore (NU) 14/11/18 11.49 18.0 °C 73 % 13.1 °C 1025.4 hPa 1.5 Km/h SSE 0.2 mm  10.8 °C 18.2 °C
Brendola (VI) 14/11/18 11.48 20.9 °C 77 % 16.7 °C 1014.1 hPa 0.0 Km/h SW 0.0 mm  9.9 °C 20.9 °C
Bresega (PD) 14/11/18 11.48 17.1 °C 83 % 14.4 °C 1028.3 hPa 1.4 Km/h W 0.0 mm  10.9 °C 17.1 °C
Brolo c/da Parrazzà (ME) 14/11/18 11.45 17.7 °C 74 % 13.0 °C 1026.2 hPa 3.0 Km/h NW 0.0 mm  13.3 °C 17.7 °C
Brugine2 (PD) 14/11/18 11.45 14.3 °C 95 % 13.5 °C 1028.8 hPa 0.2 Km/h NE 0.0 mm  9.7 °C 14.3 °C
Buccheri (SR) 14/11/18 11.32 13.9 °C 69 % 8.3 °C 1025.8 hPa 6.5 Km/h SE 0.6 mm  8.4 °C 14.2 °C
Budoia (PN) 14/11/18 11.45 17.4 °C 71 % 12.1 °C 1028.9 hPa 4.8 Km/h ESE 0.2 mm  9.5 °C 17.4 °C
Ca' Gallo (PU) 14/11/18 11.39 12.7 °C 89 % 10.9 °C 1023.9 hPa 0.0 Km/h S 0.0 mm  9.0 °C 12.7 °C
Calcinato (BS) 13/11/18 19.23 13.4 °C 92 % 12.2 °C 1029.0 hPa 0.0 Km/h NW 0.0 mm  12.5 °C 16.2 °C
Caltabellotta (AG) 14/11/18 11.40 15.9 °C 59 % 7.9 °C 1025.1 hPa 0.0 Km/h SE 0.0 mm  10.5 °C 15.9 °C
Cammarata (AG) 14/11/18 11.48 14.0 °C 71 % 8.8 °C 1017.6 hPa 14.8 Km/h NE 0.0 mm  10.8 °C 14.0 °C
Campoformido (UD) 14/11/18 11.48 16.7 °C 67 % 10.5 °C 1028.9 hPa 11.2 Km/h E 0.2 mm  9.3 °C 16.8 °C
Capodimonte (VT) 14/11/18 11.45 16.6 °C 77 % 12.6 °C 1028.3 hPa 3.7 Km/h NNE 0.0 mm  10.8 °C 16.7 °C
Caprarola Centro Storico (VT) 14/11/18 11.48 15.5 °C 54 % 6.2 °C 1023.0 hPa 5.4 Km/h SSE 0.0 mm  9.2 °C 15.5 °C
Carceri (PD) 14/11/18 11.30 16.1 °C 83 % 13.3 °C 1028.0 hPa 3.2 Km/h N 0.0 mm  10.9 °C 16.1 °C
Carmignano loc. Seano (PO) 14/11/18 11.49 13.3 °C 97 % 12.9 °C 1027.6 hPa 0.4 Km/h E 0.3 mm  9.5 °C 13.4 °C
Carpi (MO) 14/11/18 11.49 15.1 °C 91 % 13.6 °C 1028.2 hPa 0.0 Km/h WNW 0.0 mm  12.0 °C 15.1 °C
Cartigliano (VI) 14/11/18 11.48 18.5 °C 70 % 12.9 °C 1027.6 hPa 0.7 Km/h ENE 0.0 mm  7.2 °C 18.6 °C
Casotto (VI) 11/11/18 14.00 12.2 °C 97 % 11.7 °C 1019.5 hPa 0.0 Km/h NW 0.5 mm  11.9 °C 12.2 °C
Cassano Magnago (VA) 14/11/18 11.40 14.6 °C 84 % 11.9 °C 1028.7 hPa 0.0 Km/h SW 0.3 mm  8.4 °C 14.6 °C
Castel d'Azzano (VR) 14/11/18 11.35 15.9 °C 79 % 12.2 °C 817.3 hPa 0.0 Km/h --- 0.0 mm  9.3 °C 15.9 °C
Castelferro (AL) 14/11/18 11.48 11.8 °C 99 % 11.7 °C 1029.6 hPa 3.2 Km/h NW 0.0 mm  11.3 °C 13.9 °C
Castelfranco Veneto (TV) 14/11/18 11.40 17.5 °C 71 % 12.2 °C 1029.3 hPa 1.3 Km/h E 0.2 mm  8.4 °C 17.5 °C
Castelgomberto (VI) 14/11/18 11.49 17.3 °C 67 % 11.1 °C 1027.8 hPa 7.4 Km/h ESE 0.0 mm  9.0 °C 17.6 °C
Castelnuovo V.C. (PI) 14/11/18 11.40 14.6 °C 81 % 11.4 °C 1027.6 hPa 0.9 Km/h NE 0.4 mm  7.3 °C 14.9 °C
Castiglione del Lago (PG) 14/11/18 11.40 11.4 °C 98 % 11.1 °C 1030.4 hPa 0.0 Km/h --- 0.2 mm  8.9 °C 11.4 °C
Castiglione della Pescaia Vaticino (GR) 14/11/18 11.39 17.0 °C 78 % 13.1 °C 1018.2 hPa 0.0 Km/h WSW 0.0 mm  12.6 °C 17.0 °C
Cavaria con Premezzo (VA) 14/11/18 11.30 14.9 °C 82 % 11.7 °C 1028.7 hPa 8.0 Km/h SE 0.0 mm  8.4 °C 14.9 °C
Cavazzale (VI) 13/11/18 20.35 14.4 °C 92 % 13.2 °C 1027.4 hPa 0.0 Km/h --- 0.0 mm  12.6 °C 16.2 °C
Cefalù (PA) 14/11/18 11.49 18.3 °C 76 % 14.0 °C 1022.4 hPa 2.2 Km/h NE 0.0 mm  14.3 °C 18.4 °C
Cerea (VR) 14/11/18 07.30 10.6 °C 97 % 10.1 °C 1028.3 hPa 3.2 Km/h NE 0.0 mm  9.6 °C 13.2 °C
Cerea2 (VR) 14/11/18 11.30 16.7 °C 80 % 13.2 °C 1029.9 hPa 6.4 Km/h NE 0.3 mm  9.9 °C 16.7 °C
Cima Grappa (TV) 12/11/18 14.17 7.5 °C 86 % 5.3 °C 1027.0 hPa 9.6 Km/h NW 0.0 mm  5.4 °C 8.6 °C
Cismon del Grappa loc. Corlo (VI) 14/11/18 11.49 9.1 °C 97 % 8.6 °C 1029.7 hPa 3.0 Km/h SSE 0.0 mm  6.3 °C 11.3 °C
Civita Castellana (VT) 14/11/18 11.49 12.4 °C 89 % 10.6 °C 1027.4 hPa 5.6 Km/h N 0.0 mm  5.6 °C 12.5 °C
Codroipo (UD) 14/11/18 11.47 17.2 °C 67 % 11.0 °C 1024.6 hPa 5.5 Km/h SE 0.0 mm  8.8 °C 17.2 °C
Cogollo del Cengio (VI) 14/11/18 11.44 17.4 °C 60 % 9.6 °C 1027.0 hPa 9.5 Km/h SE 0.0 mm  8.4 °C 17.5 °C
Colle del Piccolo San Bernardo La Thuile (AO) 14/11/18 11.30 3.8 °C 68 % -1.7 °C 1028.3 hPa 16.1 Km/h ENE 0.0 mm  -17.8 °C 4.5 °C
Cologna Veneta Sant'Andrea (VR) 14/11/18 11.40 15.1 °C 39 % 1.2 °C 1028.6 hPa 1.6 Km/h ENE 0.0 mm  9.3 °C 15.1 °C
Colognola ai Colli (VR) 14/11/18 11.40 17.7 °C 76 % 13.4 °C 1028.6 hPa 8.0 Km/h SE 0.0 mm  8.4 °C 17.7 °C
Contrada Dosso Gervasio (VR) 14/11/18 11.45 12.8 °C 84 % 10.2 °C 1027.8 hPa 0.0 Km/h S 0.2 mm  7.7 °C 12.9 °C
Corrubio di S. Anna d'Alfaedo (VR) 14/11/18 11.45 12.1 °C 89 % 10.3 °C 1030.2 hPa 6.4 Km/h SSE 0.2 mm  7.7 °C 12.6 °C
Cosseria Lidora (SV) 14/11/18 11.30 13.3 °C 89 % 11.6 °C 1028.6 hPa 4.8 Km/h W 0.0 mm  9.4 °C 13.4 °C
Costa di Vittorio Veneto (TV) 14/11/18 11.39 16.7 °C 66 % 10.3 °C 1027.3 hPa 1.4 Km/h W 0.3 mm  8.6 °C 16.7 °C
Costa Volpino (BG) 14/11/18 11.38 14.5 °C 77 % 10.5 °C 1025.9 hPa 1.3 Km/h W 0.0 mm  8.3 °C 14.5 °C
Dorno (PV) 14/11/18 11.49 12.9 °C 98 % 12.6 °C 1029.6 hPa 0.0 Km/h WNW 0.0 mm  11.3 °C 14.6 °C
Dossobuono (VR) 14/11/18 11.49 16.8 °C 78 % 13.0 °C 1030.1 hPa 1.6 Km/h SW 0.2 mm  9.8 °C 16.8 °C
Erbezzo Passo Fittanze (VR) 14/11/18 11.39 9.1 °C 83 % 6.4 °C 1030.4 hPa 8.7 Km/h SSE 0.3 mm  5.6 °C 10.5 °C
Esine (BS) 14/11/18 11.49 14.9 °C 67 % 8.8 °C 1028.1 hPa 4.7 Km/h W 0.0 mm  7.9 °C 15.1 °C
Falzè di Piave (TV) 14/11/18 11.49 17.6 °C 71 % 12.3 °C 1029.4 hPa 0.0 Km/h --- 0.2 mm  6.7 °C 17.6 °C
Farra di Soligo (TV) 14/11/18 11.49 15.2 °C 82 % 12.1 °C 1021.3 hPa 0.4 Km/h NNE 0.0 mm  6.5 °C 15.2 °C
Feltre Celarda (BL) 14/11/18 11.48 12.6 °C 84 % 10.0 °C 1027.6 hPa 1.5 Km/h NNE 0.0 mm  4.1 °C 12.7 °C
Ferrara di M.B. (VR) 14/11/18 11.30 10.6 °C 76 % 6.6 °C 1025.5 hPa 4.8 Km/h N 0.0 mm  5.1 °C 10.7 °C
Fiavè loc. Ballino (TN) 14/11/18 11.48 7.5 °C 94 % 6.6 °C 1029.0 hPa 2.1 Km/h N 0.2 mm  7.1 °C 8.6 °C
Filo di Argenta (FE) 14/11/18 11.45 13.6 °C 94 % 12.6 °C 1029.1 hPa 5.8 Km/h NNW 0.0 mm  12.1 °C 13.7 °C
Fogliano Redipuglia (GO) 14/11/18 11.49 19.3 °C 48 % 8.0 °C 1028.2 hPa 14.0 Km/h SE 0.3 mm  8.5 °C 20.0 °C
Foligno (PG) 14/11/18 11.40 7.3 °C 93 % 6.3 °C 1028.4 hPa 0.0 Km/h --- 0.3 mm  5.4 °C 7.4 °C
Fontanafredda (PN) 13/11/18 01.40 12.8 °C 99 % 12.6 °C 1026.3 hPa 0.0 Km/h SSE 0.0 mm  12.7 °C 12.9 °C
Fumane Contrada La Ca (VR) 14/11/18 11.39 16.6 °C 70 % 11.1 °C 1030.0 hPa 4.8 Km/h SE 0.0 mm  10.2 °C 16.7 °C
Gaggiano (MI) 14/11/18 11.49 14.1 °C 97 % 13.6 °C 1028.8 hPa 1.9 Km/h E 0.2 mm  10.7 °C 14.1 °C
Gallio (VI) 14/11/18 11.35 11.2 °C 79 % 7.7 °C 1029.5 hPa 1.6 Km/h SE 0.0 mm  5.2 °C 11.9 °C
Gardolo (TN) 14/11/18 11.48 14.7 °C 71 % 9.5 °C 1029.9 hPa 8.7 Km/h NNE 0.2 mm  5.5 °C 13.4 °C
Genova Erzelli (GE) 14/11/18 11.43 17.7 °C 77 % 13.6 °C 1026.5 hPa 25.7 Km/h N 0.0 mm  15.2 °C 17.7 °C
Gradisca d'Isonzo (GO) 14/11/18 11.49 0.0 °C 0 % 9.5 °C 1029.0 hPa 0.0 Km/h ENE 0.0 mm  9.9 °C 10.5 °C
Iglesias (CI) 14/11/18 11.49 19.7 °C 84 % 16.9 °C 1027.0 hPa 3.2 Km/h E 0.0 mm  15.2 °C 19.7 °C
Isera loc. Reviano (TN) 14/11/18 11.49 12.7 °C 78 % 9.0 °C 1027.4 hPa 5.8 Km/h NNW 0.0 mm  8.0 °C 12.7 °C
Isola d'Elba Marina di Campo (LI) 13/11/18 12.00 19.4 °C 82 % 16.2 °C 558.3 hPa 1.6 Km/h SSW 0.0 mm  18.1 °C 19.7 °C
Jesolo (VE) 14/11/18 06.00 16.8 °C 0 % 0.0 °C 1024.9 hPa 8.0 Km/h NE 0.0 mm  10.3 °C 16.8 °C
Lavis (TN) 14/11/18 11.45 14.2 °C 71 % 8.9 °C 1029.2 hPa 8.0 Km/h NW 0.2 mm  6.2 °C 14.3 °C
Laxolo (BG) 14/11/18 11.46 14.2 °C 99 % 14.0 °C 1025.2 hPa 0.0 Km/h W 0.0 mm  7.1 °C 16.1 °C
Legnago (VR) 14/11/18 11.45 16.6 °C 87 % 14.4 °C 1028.8 hPa 0.0 Km/h ENE 0.2 mm  10.8 °C 16.7 °C
Lendinara2 (RO) 14/11/18 11.40 16.5 °C 77 % 12.4 °C 1028.8 hPa 0.0 Km/h N 0.0 mm  10.5 °C 16.5 °C
Lesmo (MB) 14/11/18 11.45 12.6 °C 93 % 11.5 °C 1029.7 hPa 0.0 Km/h --- 0.0 mm  6.8 °C 12.6 °C
Loano (SV) 14/11/18 11.40 17.2 °C 83 % 14.3 °C 1027.2 hPa 5.0 Km/h N 0.6 mm  15.6 °C 17.2 °C
Lugagnano (VR) 14/11/18 11.49 16.7 °C 77 % 12.8 °C 1027.5 hPa 1.7 Km/h NNW 0.2 mm  9.0 °C 16.7 °C
Lusiana Sciessere (VI) 14/11/18 11.49 13.3 °C 78 % 9.5 °C 1029.7 hPa 0.0 Km/h S 0.0 mm  8.7 °C 13.8 °C
Malga Malera (VR) 14/11/18 10.36 8.2 °C  %  °C  hPa 0.0 Km/h 0.0 mm   °C  °C
Malnate San Salvatore (VA) 14/11/18 11.40 15.0 °C 92 % 13.7 °C 1030.0 hPa 1.6 Km/h SE 0.0 mm  6.6 °C 15.0 °C
Marano Vicentino2 (VI) 14/11/18 11.45 16.1 °C 76 % 11.9 °C 1027.5 hPa 0.0 Km/h E 0.0 mm  7.4 °C 15.6 °C
Marina di Montemarciano (AN) 14/11/18 11.45 14.1 °C 86 % 11.8 °C 1028.8 hPa 0.0 Km/h --- 0.0 mm  8.0 °C 14.1 °C
Marostica Valle San Floriano (VI) 14/11/18 11.35 18.2 °C 72 % 12.8 °C 1029.7 hPa 3.2 Km/h S 0.5 mm  8.8 °C 18.2 °C
Marta (VT) 14/11/18 11.50 16.4 °C 74 % 11.8 °C 1024.9 hPa 10.1 Km/h N 0.6 mm  11.6 °C 16.4 °C
Martignano (TN) 14/11/18 08.45 7.7 °C 93 % 6.7 °C 1028.9 hPa 0.0 Km/h --- 0.0 mm  7.3 °C 10.6 °C
Masiera di Bagnacavallo (RA) 14/11/18 11.45 15.6 °C 92 % 14.3 °C 1026.6 hPa 7.8 Km/h ENE 0.0 mm  12.3 °C 15.5 °C
Massone di Arco (TN) 14/11/18 11.50 15.4 °C 72 % 10.4 °C 1027.7 hPa 2.0 Km/h S 0.0 mm  8.9 °C 15.4 °C
Merlara (PD) 14/11/18 11.40 15.6 °C 86 % 13.2 °C 1027.9 hPa 4.8 Km/h ENE 0.0 mm  10.3 °C 15.6 °C
Mezzana Bigli (PV) 14/11/18 11.50 11.9 °C 97 % 11.4 °C 1028.6 hPa 0.0 Km/h NW 0.0 mm  9.1 °C 13.3 °C
Migliarino (FE) 14/11/18 11.49 15.3 °C 91 % 13.8 °C 1028.8 hPa 5.0 Km/h N 0.0 mm  13.7 °C 15.3 °C
Miglionico (MT) 14/11/18 11.40 14.1 °C 83 % 11.3 °C 1023.1 hPa 14.5 Km/h NNW 0.0 mm  9.2 °C 14.1 °C
Miola di Piné (TN) 14/11/18 11.50 12.1 °C 71 % 7.0 °C 1029.8 hPa 3.2 Km/h W 0.4 mm  4.3 °C 12.1 °C
Mirabella Imbaccari (CT) 14/11/18 11.46 16.4 °C 73 % 11.6 °C 1027.9 hPa 3.7 Km/h ESE 0.4 mm  11.0 °C 16.5 °C
Mizzole (VR) 14/11/18 11.49 17.7 °C 71 % 12.4 °C 1028.7 hPa 1.4 Km/h SE 0.0 mm  10.1 °C 17.8 °C
Molina (VR) 13/11/18 04.46 8.9 °C 93 % 7.8 °C 1027.7 hPa 0.0 Km/h N 0.0 mm  8.9 °C 11.2 °C
Monasterolo Torinese (TO) 14/11/18 11.40 14.0 °C 77 % 10.0 °C 1025.1 hPa 0.0 Km/h --- 0.0 mm  8.8 °C 14.4 °C
Moneglia loc. Casale (GE) 14/11/18 11.50 17.3 °C 76 % 13.0 °C 1028.6 hPa 0.0 Km/h W 0.0 mm  15.3 °C 17.3 °C
Moneglia loc. La Secca (GE) 14/11/18 11.50 17.3 °C 82 % 14.2 °C 1026.7 hPa 4.8 Km/h NE 0.0 mm  17.2 °C 17.4 °C
Mongrando San Michele (BI) 14/11/18 11.40 14.3 °C 100 % 14.3 °C 1028.9 hPa 0.0 Km/h NNE 0.2 mm  8.1 °C 14.4 °C
Monselice (PD) 14/11/18 11.52 17.3 °C 70 % 11.7 °C 1021.9 hPa 8.6 Km/h E 0.0 mm  12.2 °C 17.3 °C
Montebello Vicentino loc. Selva (VI) 14/11/18 11.49 16.2 °C 57 % 7.7 °C 1029.1 hPa 6.9 Km/h ENE 0.0 mm  11.1 °C 16.4 °C
Montecchio Maggiore Sant'Urbano (VI) 14/11/18 11.35 15.7 °C 64 % 8.9 °C 1035.8 hPa 12.2 Km/h E 0.0 mm  9.6 °C 16.0 °C
Monteforte d'Alpone2 (VR) 14/11/18 11.45 16.9 °C 71 % 11.6 °C 1027.1 hPa 14.5 Km/h ENE 0.4 mm  8.2 °C 16.9 °C
Montelabbate (PU) 14/11/18 11.39 13.6 °C 91 % 12.1 °C 1022.6 hPa 3.5 Km/h SSW 0.0 mm  9.1 °C 13.6 °C
Montespertoli (FI) 14/11/18 11.39 14.0 °C 99 % 13.8 °C 1029.3 hPa 2.3 Km/h N 0.0 mm  10.9 °C 14.0 °C
Montopoli in val d'Arno Loc. Capanne (PI) 10/11/18 11.50 17.0 °C 77 % 12.9 °C 1015.9 hPa 6.9 Km/h N 0.0 mm  7.1 °C 17.0 °C
Montorio (VR) 14/11/18 11.39 17.3 °C 73 % 12.4 °C 1030.7 hPa 5.0 Km/h ESE 0.0 mm  10.1 °C 17.3 °C
Montorso Vicentino (VI) 14/11/18 11.50 15.7 °C 77 % 11.7 °C 1028.7 hPa 0.0 Km/h ESE 0.2 mm  9.4 °C 15.9 °C
Musigliano (PI) 14/11/18 11.49 18.1 °C 79 % 14.4 °C 1026.6 hPa 1.0 Km/h SE 0.0 mm  11.1 °C 18.1 °C
Muzzano (BI) 14/11/18 11.40 13.8 °C 82 % 10.8 °C 1027.6 hPa 0.0 Km/h S 0.0 mm  9.9 °C 13.8 °C
Nichelino (TO) 14/11/18 11.40 11.9 °C 93 % 10.8 °C 1031.6 hPa 3.2 Km/h SSE 0.3 mm  6.3 °C 11.9 °C
Novara (NO) 14/11/18 11.40 11.9 °C 91 % 10.5 °C 1029.0 hPa 0.0 Km/h --- 0.0 mm  7.6 °C 12.0 °C
Onara extraurbana (PD) 14/11/18 11.46 17.6 °C 72 % 12.5 °C 1024.4 hPa 0.9 Km/h ENE 0.0 mm  8.5 °C 17.7 °C
Oppeano (VR) 12/11/18 12.00 16.1 °C 82 % 13.0 °C 1022.7 hPa 0.0 Km/h NE 0.0 mm  11.1 °C 16.1 °C
Oristano (OR) 14/11/18 11.50 21.0 °C 69 % 15.1 °C 1024.5 hPa 2.8 Km/h SE 0.2 mm  12.8 °C 21.5 °C
Orosei (NU) 14/11/18 11.45 19.4 °C 79 % 15.6 °C 1026.2 hPa 4.8 Km/h ESE 0.0 mm  12.6 °C 19.5 °C
Ortonovo (SP) 14/11/18 11.50 18.5 °C 80 % 15.0 °C 1022.5 hPa 4.4 Km/h SW 0.0 mm  14.4 °C 18.5 °C
Orvieto (TR) 14/11/18 11.46 12.5 °C 91 % 11.1 °C 1024.7 hPa 0.7 Km/h NNE 0.0 mm  7.5 °C 12.5 °C
Ovaro loc. Liariis (UD) 14/11/18 11.35 14.8 °C 72 % 9.8 °C 1029.7 hPa 1.6 Km/h SSE 0.2 mm  5.9 °C 14.8 °C
Pace del Mela (ME) 14/11/18 11.50 18.3 °C 72 % 13.2 °C 1025.1 hPa 8.5 Km/h NW 0.0 mm  14.4 °C 18.7 °C
Parella (TO) 14/11/18 11.39 13.6 °C 79 % 10.0 °C 1027.3 hPa 0.0 Km/h SE 0.3 mm  8.5 °C 13.6 °C
Pastrengo (VR) 14/11/18 08.12 10.4 °C 97 % 9.9 °C 1031.2 hPa 0.0 Km/h E 0.0 mm  9.6 °C 12.0 °C
Pastrengo Corné (VR) 14/11/18 11.50 15.8 °C 77 % 11.8 °C 1027.6 hPa 3.2 Km/h SW 0.2 mm  9.4 °C 15.8 °C
Pecetto Torinese (TO) 14/11/18 11.39 14.3 °C 87 % 12.2 °C 1029.0 hPa 0.0 Km/h N 0.0 mm  9.0 °C 14.4 °C
Pedara (CT) 11/11/18 16.22 16.0 °C 88 % 0.0 °C 940.0 hPa 7.4 Km/h N 28.7 mm  13.5 °C 17.0 °C
Pedemonte (VR) 14/11/18 11.40 17.6 °C 75 % 13.1 °C 1028.4 hPa 2.0 Km/h W 0.0 mm  8.0 °C 17.6 °C
Perarolo di Arcugnano (VI) 14/11/18 11.51 14.9 °C 79 % 11.3 °C 998.5 hPa 1.1 Km/h N 0.0 mm  9.8 °C 14.9 °C
Perugia San Mariano (PG) 14/11/18 11.35 9.9 °C 92 % 8.7 °C 1029.0 hPa 0.0 Km/h N 0.0 mm  7.4 °C 10.0 °C
Peschiera del Garda (VR) 14/11/18 11.40 15.6 °C 80 % 12.2 °C 1029.4 hPa 4.8 Km/h NNE 0.5 mm  9.5 °C 15.8 °C
Pian di Castagné (VR) 12/11/18 12.25 13.7 °C 88 % 11.8 °C 1026.0 hPa 4.8 Km/h SW 0.0 mm  10.3 °C 13.7 °C
Pian di Castagné2 (VR) 14/11/18 11.39 15.2 °C 78 % 11.4 °C 1028.3 hPa 0.3 Km/h ESE 0.3 mm  10.2 °C 15.2 °C
Pila Valsesia (VC) 14/11/18 11.40 11.8 °C 70 % 6.5 °C 1026.9 hPa 1.6 Km/h SE 0.2 mm  3.9 °C 12.7 °C
Piovà Massaia (AT) 14/11/18 11.50 12.8 °C 92 % 11.5 °C 1027.8 hPa 3.2 Km/h E 0.4 mm  7.9 °C 13.2 °C
Piraino contr. Fiumara (ME) 14/11/18 11.40 19.0 °C 72 % 13.8 °C 1026.7 hPa 3.0 Km/h S 0.2 mm  11.2 °C 19.1 °C
Pisa zona I Passi (PI) 14/11/18 11.50 16.9 °C 81 % 13.6 °C 1028.3 hPa 0.0 Km/h NE 0.0 mm  11.8 °C 16.9 °C
Pojana Maggiore Cagnano (VI) 14/11/18 11.48 16.4 °C 97 % 15.9 °C 1026.0 hPa 0.0 Km/h 0.0 mm  10.3 °C 16.4 °C
Pomezia (RM) 14/11/18 11.50 16.1 °C 75 % 11.7 °C 1025.5 hPa 0.0 Km/h WNW 0.0 mm  8.6 °C 16.1 °C
Ponte San Nicolò (PD) 14/11/18 11.39 16.5 °C 78 % 12.7 °C 1028.4 hPa 3.2 Km/h NE 0.0 mm  10.8 °C 16.5 °C
Ponte San Pellegrino (MO) 14/11/18 11.49 14.1 °C 99 % 13.9 °C 1031.9 hPa 0.0 Km/h NW 0.0 mm  11.8 °C 14.1 °C
Pordenone (PN) 14/11/18 11.40 18.2 °C 67 % 11.9 °C 1028.4 hPa 0.0 Km/h NNW 0.0 mm  8.6 °C 18.2 °C
Pozzolo Formigaro (AL) 14/11/18 11.40 11.7 °C 99 % 11.5 °C 1029.9 hPa 1.6 Km/h NNW 0.0 mm  10.4 °C 12.3 °C
Pray (BI) 14/11/18 11.49 14.8 °C 78 % 11.0 °C 1028.8 hPa 3.0 Km/h SSE 0.2 mm  4.9 °C 14.8 °C
Reggello (FI) 14/11/18 11.50 12.0 °C 92 % 10.7 °C 1030.4 hPa 0.0 Km/h ONO 0.2 mm  7.2 °C 12.3 °C
Rifugio Bocca di Selva (VR) 14/11/18 11.50 7.9 °C 90 % 6.4 °C 1027.8 hPa 14.5 Km/h E 0.0 mm  7.6 °C 9.1 °C
Rifugio Fiori del Baldo (VR) 14/11/18 11.35 5.3 °C 98 % 5.3 °C 1033.1 hPa 11.4 Km/h SE 0.0 mm  4.8 °C 8.6 °C
Rifugio Primaneve (VR) 14/11/18 11.39 5.6 °C 96 % 5.0 °C 1028.7 hPa 8.0 Km/h SE 0.3 mm  5.1 °C 7.8 °C
Rimini (RN) 14/11/18 11.40 14.3 °C 90 % 12.7 °C 1028.5 hPa 0.0 Km/h WNW 0.3 mm  10.2 °C 14.3 °C
Rimini Zona Palas (RN) 14/11/18 11.35 13.8 °C 96 % 13.3 °C 1028.7 hPa 3.2 Km/h WNW 0.0 mm  10.3 °C 13.9 °C
Rivalta sul Mincio (MN) 14/11/18 11.42 15.9 °C 87 % 13.8 °C 1029.3 hPa 0.6 Km/h NW 0.0 mm  12.3 °C 16.2 °C
Romano d'Ezzelino Fellette (VI) 14/11/18 11.50 17.4 °C 68 % 11.4 °C 1030.9 hPa 14.8 Km/h ENE 0.5 mm  8.5 °C 17.4 °C
Ronciglione Centro (VT) 14/11/18 10.06 0.0 °C 88 % -1.8 °C 1025.0 hPa 0.0 Km/h S 0.0 mm  0.0 °C 12.2 °C
Rosolina (RO) 14/11/18 11.35 14.9 °C 96 % 14.3 °C 1029.4 hPa 4.8 Km/h N 0.0 mm  12.8 °C 14.9 °C
S. Giovanni Ilarione2 (VR) 14/11/18 11.45 17.5 °C 70 % 12.0 °C 1028.1 hPa 4.8 Km/h SE 0.2 mm  9.2 °C 18.1 °C
S. Giovanni Lupatoto (VR) 14/11/18 11.40 17.6 °C 76 % 13.3 °C 1030.3 hPa 0.0 Km/h --- 0.2 mm  9.7 °C 17.8 °C
S. Lorenzo di Vittorio Veneto (TV) 14/11/18 11.50 16.0 °C 68 % 10.1 °C 1029.1 hPa 3.2 Km/h SSE 0.0 mm  11.7 °C 16.2 °C
S. Lorenzo Nuovo (VT) 14/11/18 11.49 15.6 °C 75 % 11.2 °C 1023.7 hPa 6.5 Km/h NNE 0.0 mm  9.9 °C 15.6 °C
S. Maria di Zevio Loc. 3 Ponti (VR) 14/11/18 11.50 16.7 °C 78 % 12.8 °C 1030.1 hPa 1.6 Km/h SE 0.0 mm  8.9 °C 16.7 °C
S. Maria Maddalena (RO) 14/11/18 11.45 15.4 °C 88 % 13.3 °C 1027.8 hPa 0.0 Km/h NE 0.0 mm  13.3 °C 15.4 °C
S. Martino Lupari (PD) 14/11/18 12.40 17.6 °C 73 % 12.7 °C 821.9 hPa 0.0 Km/h E 0.2 mm  8.3 °C 17.7 °C
S. Zeno di Mont. Prada (VR) 14/11/18 11.40 11.7 °C 72 % 6.8 °C 1028.6 hPa 0.0 Km/h S 0.0 mm  5.3 °C 11.7 °C
Sacile (PN) 14/11/18 11.35 17.5 °C 69 % 11.7 °C 1029.3 hPa 4.8 Km/h ESE 0.3 mm  7.3 °C 17.6 °C
Sacile2 (PN) 14/11/18 11.35 17.8 °C 77 % 13.7 °C 1028.4 hPa 0.0 Km/h N 0.0 mm  6.9 °C 17.8 °C
San Benedetto del Tronto (AP) 14/11/18 00.00 11.6 °C 93 % 10.5 °C 1026.5 hPa 0.0 Km/h N 0.0 mm  10.3 °C 15.0 °C
San Cataldo (CL) 14/11/18 11.50 14.5 °C 64 % 7.8 °C 1022.1 hPa 5.6 Km/h NE 0.0 mm  9.3 °C 14.5 °C
San Giovanni la Punta Trappeto (CT) 14/11/18 11.45 20.9 °C 54 % 11.2 °C 1026.3 hPa 3.2 Km/h SSE 0.0 mm  10.8 °C 21.1 °C
San Nazario (VI) 14/11/18 11.36 15.0 °C 64 % 8.2 °C 1028.1 hPa 5.0 Km/h NW 0.0 mm  11.4 °C 15.0 °C
San Pietro di Rosà (VI) 14/11/18 11.49 18.0 °C 65 % 11.3 °C 1032.0 hPa 4.6 Km/h NE 0.2 mm  8.2 °C 18.0 °C
San Pietro in Cariano (VR) 14/11/18 11.39 16.6 °C 69 % 10.9 °C 1028.7 hPa 5.0 Km/h S 0.0 mm  9.8 °C 16.7 °C
San Salvo3 (CH) 14/11/18 11.50 17.8 °C 69 % 12.0 °C 1024.5 hPa 0.0 Km/h NW 0.2 mm  9.2 °C 17.8 °C
San Vito di Negrar (VR) 14/11/18 11.40 17.5 °C 70 % 12.0 °C 1030.5 hPa 3.2 Km/h SSW 0.0 mm  9.4 °C 17.6 °C
San Zeno di Mont. Loc. Castello (VR) 14/11/18 11.49 11.3 °C 79 % 7.8 °C 1028.3 hPa 4.2 Km/h E 0.0 mm  8.4 °C 11.6 °C
Santa Maria di Negrar (VR) 14/11/18 11.39 15.1 °C 87 % 13.0 °C 1029.3 hPa 0.0 Km/h W 0.0 mm  8.7 °C 15.1 °C
Sarcedo (VI) 14/11/18 11.49 17.4 °C 69 % 11.7 °C 1027.4 hPa 2.5 Km/h E 0.2 mm  7.3 °C 17.5 °C
Savelli (KR) 14/11/18 11.49 15.9 °C 46 % 4.3 °C 1024.5 hPa 5.8 Km/h S 0.0 mm  10.7 °C 15.9 °C
Schio (VI) 14/11/18 11.25 18.3 °C 63 % 11.2 °C 1030.2 hPa 3.2 Km/h SE 0.2 mm  9.1 °C 18.6 °C
Schio Monte Magré (VI) 14/11/18 11.50 14.9 °C 79 % 11.3 °C 0.0 hPa 3.2 Km/h E 0.2 mm  8.8 °C 15.2 °C
Seremange Erzange (Moselle) 14/11/18 11.49 6.0 °C 98 % 5.7 °C 1029.9 hPa 3.2 Km/h E 0.2 mm  3.7 °C 5.4 °C
Sinnai (CA) 14/11/18 11.30 20.6 °C 71 % 15.1 °C 1026.1 hPa 3.2 Km/h SE 0.0 mm  14.2 °C 20.6 °C
Soave Borgo Bassano (VR) 14/11/18 11.45 17.7 °C 72 % 12.6 °C 1029.0 hPa 5.0 Km/h ENE 0.2 mm  9.0 °C 17.7 °C
Sona Loc. La Colombara (VR) 14/11/18 11.00 15.0 °C 84 % 12.3 °C 1026.0 hPa 3.0 Km/h WSW 0.3 mm  8.0 °C 15.0 °C
Soriso (NO) 14/11/18 11.40 14.6 °C 83 % 11.7 °C 1029.6 hPa 0.0 Km/h ENE 0.3 mm  8.3 °C 14.7 °C
Staranzano (GO) 14/11/18 11.30 17.3 °C 60 % 9.5 °C 1029.3 hPa 12.9 Km/h E 0.0 mm  9.0 °C 17.6 °C
Stiore - Monteveglio (BO) 14/11/18 11.50 12.9 °C 96 % 12.3 °C 1025.6 hPa 4.8 Km/h WNW 0.0 mm  11.5 °C 13.1 °C
Taio Mollaro (TN) 14/11/18 11.50 13.6 °C 74 % 9.1 °C 1029.7 hPa 0.0 Km/h ESE 0.0 mm  4.0 °C 13.3 °C
Taranto (TA) 14/11/18 11.45 18.8 °C 68 % 12.8 °C 1021.0 hPa 12.6 Km/h NNE 0.0 mm  13.8 °C 19.0 °C
Tombolo (PD) 14/11/18 11.50 16.7 °C 75 % 12.3 °C 1029.0 hPa 8.0 Km/h E 0.2 mm  8.4 °C 16.7 °C
Torino Regio Parco (TO) 14/11/18 11.50 14.8 °C 81 % 11.5 °C 1030.2 hPa 0.0 Km/h WSW 0.2 mm  8.4 °C 14.8 °C
Torri (FI) 14/11/18 11.30 10.9 °C 97 % 10.5 °C 1028.0 hPa 0.0 Km/h --- 0.3 mm  8.4 °C 10.9 °C
Torrita di Siena (SI) 14/11/18 11.40 12.8 °C 95 % 12.1 °C 1029.1 hPa 0.0 Km/h --- 0.2 mm  6.8 °C 12.8 °C
Tregnago Loc. Centro (VR) 14/11/18 11.45 16.0 °C 73 % 11.2 °C 1022.7 hPa 6.4 Km/h SSE 0.2 mm  10.1 °C 16.3 °C
Trento (TN) 14/11/18 11.50 13.4 °C 70 % 8.1 °C 1028.6 hPa 0.0 Km/h NNE 0.0 mm  8.6 °C 13.4 °C
Treviso (TV) 14/11/18 11.50 17.2 °C 68 % 11.3 °C 1028.4 hPa 4.0 Km/h NE 0.0 mm  9.8 °C 17.5 °C
Tuscania (VT) 14/11/18 09.00 11.4 °C 92 % 10.2 °C 1028.1 hPa 0.9 Km/h ENE 0.2 mm  10.1 °C 11.7 °C
Val Lastaro (VI) 14/11/18 11.43 11.3 °C 85 % 8.9 °C 1029.9 hPa 3.2 Km/h SE 0.0 mm  4.1 °C 11.4 °C
Valdagno (VI) 14/11/18 11.50 18.6 °C 53 % 8.8 °C 1024.7 hPa 9.7 Km/h SSE 0.0 mm  8.5 °C 21.0 °C
Valdobbiadene San Pietro di Barbozza (TV) 14/11/18 11.45 15.3 °C 73 % 10.5 °C 1027.9 hPa 8.0 Km/h ESE 0.0 mm  11.4 °C 15.4 °C
Valentano (VT) 14/11/18 11.50 15.5 °C 73 % 10.6 °C 1025.5 hPa 0.0 Km/h N 0.3 mm  10.7 °C 15.5 °C
Valenza (AL) 14/11/18 11.40 10.8 °C 98 % 10.6 °C 1029.0 hPa 3.2 Km/h NNW 0.0 mm  9.8 °C 13.6 °C
Valli del Pasubio loc. Gisbenti (VI) 14/11/18 11.50 15.4 °C 87 % 13.2 °C 984.0 hPa 0.0 Km/h NE 0.0 mm  5.6 °C 15.4 °C
Varese Ligure (SP) 14/11/18 11.51 15.6 °C 78 % 11.8 °C 1027.3 hPa 6.0 Km/h NO 0.0 mm  10.2 °C 15.8 °C
Vasto (CH) 14/11/18 11.50 18.3 °C 10 % -13.8 °C 1027.5 hPa 0.0 Km/h --- 0.9 mm  12.3 °C 18.3 °C
Vattaro fraz. Pian dei Pradi (TN) 14/11/18 11.48 9.4 °C 96 % 8.8 °C 1030.1 hPa 0.0 Km/h SE 0.2 mm  5.4 °C 9.4 °C
Vazzo Roveré Veronese (VR) 14/11/18 11.50 13.6 °C 71 % 8.4 °C 1025.9 hPa 0.0 Km/h SE 0.0 mm  7.6 °C 14.0 °C
Verona Bgo Venezia (iz3sly) (VR) 14/11/18 11.40 12.2 °C 91 % 10.7 °C 1028.0 hPa 0.0 Km/h WSW 0.3 mm  9.2 °C 12.2 °C
Verona Cadidavid2 (VR) 14/11/18 11.35 16.5 °C 74 % 11.8 °C 1028.9 hPa 2.1 Km/h W 0.0 mm  8.3 °C 16.5 °C
Vicenza Pecori Giraldi (VI) 14/11/18 11.35 17.6 °C 87 % 15.4 °C 1024.5 hPa 2.9 Km/h NNE 0.0 mm  11.9 °C 17.7 °C
Vicenza S. Lazzaro (VI) 14/11/18 11.50 17.2 °C 71 % 11.9 °C 1027.8 hPa 3.2 Km/h ESE 0.3 mm  10.0 °C 17.2 °C
Vicenza San Gaetano (VI) 14/11/18 11.50 18.2 °C 76 % 13.9 °C 1028.4 hPa 0.0 Km/h E 0.0 mm  10.1 °C 18.2 °C
Vieste (FG) 14/11/18 11.50 18.6 °C 77 % 14.5 °C 1027.4 hPa 31.7 Km/h W 0.0 mm  15.1 °C 18.7 °C
Vigardolo (VI) 14/11/18 11.39 17.4 °C 70 % 11.9 °C 1027.0 hPa 3.5 Km/h E 0.0 mm  9.8 °C 17.4 °C
Vigasio (VR) 14/11/18 11.40 17.7 °C 78 % 13.8 °C 1027.0 hPa 1.6 Km/h WSW 0.2 mm  9.4 °C 17.7 °C
Villabartolomea (VR) 14/11/18 11.30 15.6 °C 81 % 12.2 °C 1027.7 hPa 1.6 Km/h E 0.3 mm  10.7 °C 15.6 °C
Viozene Toria (CN) 14/11/18 11.50 11.1 °C 70 % 5.8 °C 1023.2 hPa 3.0 Km/h S 0.0 mm  4.3 °C 11.3 °C
Viterbo Santa Barbara (VT) 14/11/18 11.50 14.4 °C 77 % 10.4 °C 1026.3 hPa 3.9 Km/h NE 0.0 mm  9.6 °C 14.4 °C
Viterbo Strada Bagni (VT) 14/11/18 11.51 16.0 °C 79 % 12.4 °C 1026.1 hPa 0.0 Km/h NNE 0.2 mm  5.0 °C 16.0 °C
Vitorchiano Pallone (VT) 14/11/18 11.40 12.8 °C 85 % 10.3 °C 1026.0 hPa 4.8 Km/h ESE 0.0 mm  7.7 °C 12.8 °C
Vittorio Veneto Parco Fenderl (TV) 14/11/18 11.30 16.9 °C 65 % 10.3 °C 1029.0 hPa 0.0 Km/h E 0.0 mm  10.7 °C 16.9 °C
Volpago del Montello (TV) 14/11/18 11.30 16.2 °C 84 % 13.5 °C 1028.8 hPa 0.0 Km/h W 0.3 mm  8.2 °C 16.2 °C
 
(*) = Precipitazioni nelle ultime 24h.
Dati non aggiornati nell'ultima ora.
   
In collaborazione con:
 
Top! Top!